Trapani, Italy

9:43 PM CEST on July 29, 2016 (GMT +0200)
Trapani Palma iw9gtd | | Change Station

Elev 72 ft 37.95 °N, 12.51 °E | Updated 38 minutes ago

Clear
Clear
80.4 °F
Feels Like 84 °F
N
0.9
Wind Variable Wind from East
Gusts 1.3 mph

Today
High -- | Low -- °F
--% Chance of Precip.
Yesterday
High -- | Low -- °F
Precip. -- in
Pressure 30.01 in
Visibility -9999.0 miles
Clouds
Heat Index 84 °F
Dew Point 71 °F
Humidity 73%
Rainfall 0.00 in
Snow Depth Not available.
6:10 AM 8:21 PM
Waning Crescent, 19% visible
METAR LICJ 291920Z 05014KT CAVOK 27/21 Q1016
Pressure 30.01 in
Visibility -9999.0 miles
Clouds
Heat Index 84 °F
Dew Point 71 °F
Humidity 73%
Rainfall 0.00 in
Snow Depth Not available.
6:10 AM 8:21 PM
Waning Crescent, 19% visible
METAR LICJ 291920Z 05014KT CAVOK 27/21 Q1016

10-Day Weather Forecast

×

Almanac

Astronomy

Jul. 29, 2016 Rise Set
Actual Time
Civil Twilight
Nautical Twilight
Astronomical Twilight
Moon
Length of Visible Light
Length of Day
Tomorrow will be .
, % of the Moon is Illuminated

Today's Extremes

Country Highs Country Lows

Community

WunderPhotos

Upload Photos

1,928,401 photos uploaded!

WunderBlog® & News

Nearby

Air Quality

  Air Quality AQ Index Pollutant
Not available.

Snow Depth

Station Depth Elevation

Earthquake Activity

City Distance Mag. Time & Date
Minimum magnitude displayed is 2.5.

Coastal Water Temperatures

Place Temperature

Stations

Nearby Weather Stations

Station Location Temp. Windchill Dew Point Humidity Wind Precip. Elev Updated Type